createdAt,value
2023-03-18T00:00:53.522Z,14.07
2023-03-18T00:03:22.787Z,14.55
2023-03-18T00:05:51.220Z,12.00
2023-03-18T00:08:20.869Z,15.55
2023-03-18T00:10:52.667Z,15.15
2023-03-18T00:13:22.061Z,15.02
2023-03-18T00:15:52.165Z,13.60
2023-03-18T00:18:20.601Z,14.05
2023-03-18T00:20:48.897Z,15.45
2023-03-18T00:23:18.041Z,16.75
2023-03-18T00:30:22.312Z,14.05
2023-03-18T00:32:52.896Z,15.60
2023-03-18T00:35:21.482Z,16.77
2023-03-18T00:37:49.726Z,16.58
2023-03-18T00:40:20.379Z,12.38
2023-03-18T00:42:57.409Z,15.23
2023-03-18T00:45:26.036Z,14.48
2023-03-18T00:47:56.500Z,13.32
2023-03-18T00:50:24.963Z,16.08
2023-03-18T00:52:53.429Z,15.35
2023-03-18T00:55:21.950Z,15.70
2023-03-18T00:57:51.222Z,14.27
2023-03-18T01:00:19.927Z,13.25
2023-03-18T01:02:49.620Z,13.80
2023-03-18T01:05:19.353Z,13.52
2023-03-18T01:07:48.219Z,13.43
2023-03-18T01:10:17.370Z,13.75
2023-03-18T01:12:48.289Z,14.15
2023-03-18T01:15:20.943Z,12.32
2023-03-18T01:17:50.901Z,13.52
2023-03-18T01:20:25.580Z,12.75
2023-03-18T01:22:56.970Z,16.17
2023-03-18T01:25:27.481Z,15.40
2023-03-18T01:27:57.284Z,15.45
2023-03-18T01:30:28.569Z,17.48
2023-03-18T01:33:01.024Z,15.02
2023-03-18T01:35:35.830Z,16.30
2023-03-18T01:38:05.944Z,13.65
2023-03-18T01:40:36.056Z,14.73
2023-03-18T01:43:14.279Z,17.15
2023-03-18T01:45:45.650Z,16.67
2023-03-18T01:52:08.856Z,15.10
2023-03-18T01:54:40.324Z,14.43
2023-03-18T01:57:09.716Z,16.17
2023-03-18T01:59:40.679Z,12.70
2023-03-18T02:02:10.802Z,14.50
2023-03-18T02:04:42.479Z,12.23
2023-03-18T02:07:18.068Z,16.08
2023-03-18T02:09:52.626Z,17.27
2023-03-18T02:12:24.493Z,14.68
2023-03-18T02:14:59.296Z,17.83
2023-03-18T02:17:30.338Z,15.98
2023-03-18T02:20:05.154Z,13.50
2023-03-18T02:22:41.556Z,14.85
2023-03-18T02:25:21.983Z,13.65
2023-03-18T02:27:56.373Z,14.38
2023-03-18T02:30:28.323Z,13.10
2023-03-18T02:32:59.116Z,15.98
2023-03-18T02:35:30.997Z,13.48
2023-03-18T02:38:02.729Z,15.45
2023-03-18T02:40:33.390Z,14.32
2023-03-18T02:43:26.003Z,14.93
2023-03-18T02:46:13.491Z,13.50
2023-03-18T02:48:47.991Z,13.15
2023-03-18T02:51:18.488Z,16.13
2023-03-18T02:53:51.207Z,14.73
2023-03-18T02:56:23.746Z,13.40
2023-03-18T02:58:53.471Z,13.88
2023-03-18T03:01:28.296Z,13.95
2023-03-18T03:03:57.802Z,12.73
2023-03-18T03:06:27.313Z,15.43
2023-03-18T03:08:59.170Z,13.25
2023-03-18T03:11:32.360Z,13.20
2023-03-18T03:14:09.958Z,15.13
2023-03-18T03:16:44.391Z,13.43
2023-03-18T03:19:16.879Z,14.27
2023-03-18T03:21:46.256Z,14.15
2023-03-18T03:24:17.904Z,16.60
2023-03-18T03:26:47.722Z,14.10
2023-03-18T03:29:18.970Z,12.65
2023-03-18T03:31:49.722Z,12.40
2023-03-18T03:34:19.877Z,11.60
2023-03-18T03:36:52.916Z,14.05
2023-03-18T03:39:22.427Z,13.35
2023-03-18T03:41:53.964Z,12.57
2023-03-18T03:44:24.998Z,14.75
2023-03-18T03:46:56.991Z,15.40
2023-03-18T03:49:26.877Z,13.73
2023-03-18T03:51:59.769Z,12.73
2023-03-18T03:54:32.857Z,15.55
2023-03-18T03:57:04.470Z,12.38
2023-03-18T03:59:38.209Z,12.75
2023-03-18T04:02:26.700Z,13.63
2023-03-18T04:04:56.792Z,12.98
2023-03-18T04:07:30.304Z,13.68
2023-03-18T04:09:59.466Z,14.30
2023-03-18T04:12:28.666Z,13.45
2023-03-18T04:15:01.916Z,12.65
2023-03-18T04:17:36.334Z,15.38
2023-03-18T04:20:08.250Z,12.32
2023-03-18T04:22:37.855Z,13.55
2023-03-18T04:25:16.119Z,15.50
2023-03-18T04:27:45.973Z,15.07
2023-03-18T04:30:15.833Z,14.05
2023-03-18T04:33:01.216Z,13.23
2023-03-18T04:35:30.837Z,19.58
2023-03-18T04:37:59.627Z,17.77
2023-03-18T04:40:28.575Z,15.68
2023-03-18T04:42:57.522Z,15.70
2023-03-18T04:45:28.072Z,13.50
2023-03-18T04:48:00.114Z,12.95
2023-03-18T04:50:30.811Z,13.25
2023-03-18T04:53:00.118Z,13.57
2023-03-18T04:55:31.002Z,19.05
2023-03-18T04:58:02.259Z,15.05
2023-03-18T05:00:34.118Z,13.27
2023-03-18T05:03:16.692Z,12.57
2023-03-18T05:05:45.136Z,15.35
2023-03-18T05:08:15.526Z,12.90
2023-03-18T05:10:44.067Z,15.10
2023-03-18T05:13:16.107Z,14.70
2023-03-18T05:15:44.556Z,12.27
2023-03-18T05:18:14.064Z,16.35
2023-03-18T05:20:45.980Z,14.10
2023-03-18T05:23:16.704Z,15.10
2023-03-18T05:25:51.356Z,13.77
2023-03-18T05:28:22.378Z,16.75
2023-03-18T05:31:06.566Z,15.35
2023-03-18T05:33:38.528Z,14.43
2023-03-18T05:36:09.311Z,13.63
2023-03-18T05:38:45.282Z,14.68
2023-03-18T05:41:13.721Z,12.88
2023-03-18T05:43:43.533Z,13.07
2023-03-18T05:46:12.752Z,14.48
2023-03-18T05:49:13.296Z,13.80
2023-03-18T05:51:53.759Z,14.15
2023-03-18T05:54:34.519Z,15.27
2023-03-18T05:57:04.176Z,13.55
2023-03-18T06:02:37.713Z,13.05
2023-03-18T06:05:06.355Z,13.32
2023-03-18T06:07:36.571Z,12.70
2023-03-18T06:10:05.085Z,15.50
2023-03-18T06:12:33.787Z,14.70
2023-03-18T06:15:02.369Z,15.18
2023-03-18T06:17:31.378Z,14.07
2023-03-18T06:20:00.054Z,13.82
2023-03-18T06:22:28.623Z,13.55
2023-03-18T06:24:58.530Z,15.38
2023-03-18T06:27:26.975Z,13.68
2023-03-18T06:30:02.605Z,13.30
2023-03-18T06:32:31.160Z,15.00
2023-03-18T06:34:59.623Z,13.50
2023-03-18T06:37:29.187Z,11.02
2023-03-18T06:39:58.851Z,13.45
2023-03-18T06:42:27.180Z,11.77
2023-03-18T06:45:02.243Z,12.95
2023-03-18T06:47:42.897Z,14.18
2023-03-18T06:50:13.461Z,17.15
2023-03-18T06:52:42.230Z,19.42
2023-03-18T06:55:15.073Z,16.90
2023-03-18T06:57:46.515Z,21.92
2023-03-18T07:00:18.147Z,16.98
2023-03-18T07:02:46.792Z,15.25
2023-03-18T07:05:20.608Z,16.92
2023-03-18T07:07:49.481Z,14.25
2023-03-18T07:10:22.522Z,17.33
2023-03-18T07:12:52.188Z,16.27
2023-03-18T07:15:22.500Z,17.02
2023-03-18T07:17:53.210Z,14.57
2023-03-18T07:20:22.166Z,16.67
2023-03-18T07:22:51.286Z,17.65
2023-03-18T07:25:23.091Z,17.23
2023-03-18T07:27:52.080Z,17.55
2023-03-18T07:30:21.205Z,16.88
2023-03-18T07:32:49.767Z,16.00
2023-03-18T07:35:18.392Z,17.20
2023-03-18T07:37:47.190Z,17.95
2023-03-18T07:40:16.867Z,15.23
2023-03-18T07:42:46.543Z,17.40
2023-03-18T07:45:14.816Z,17.00
2023-03-18T07:47:43.728Z,15.25
2023-03-18T07:50:13.548Z,14.63
2023-03-18T07:52:41.851Z,17.58
2023-03-18T07:55:10.629Z,17.90
2023-03-18T07:57:38.915Z,14.50
2023-03-18T08:00:10.416Z,15.95
2023-03-18T08:02:41.408Z,14.43
2023-03-18T08:05:10.170Z,12.35
2023-03-18T08:07:39.196Z,14.70
2023-03-18T08:10:08.862Z,13.93
2023-03-18T08:12:51.659Z,14.55
2023-03-18T08:15:22.240Z,14.70
2023-03-18T08:17:50.723Z,13.75
2023-03-18T08:20:19.380Z,12.80
2023-03-18T08:22:48.402Z,11.77
2023-03-18T08:25:16.856Z,12.90
2023-03-18T08:27:45.198Z,11.15
2023-03-18T08:30:14.964Z,14.50
2023-03-18T08:32:44.711Z,9.80
2023-03-18T08:35:13.460Z,8.98
2023-03-18T08:37:42.555Z,11.20
2023-03-18T08:40:11.743Z,11.70
2023-03-18T08:42:40.149Z,8.60
2023-03-18T08:45:09.468Z,10.52
2023-03-18T08:47:37.970Z,7.95
2023-03-18T08:50:08.948Z,8.93
2023-03-18T08:52:38.465Z,6.10
2023-03-18T08:55:07.580Z,5.40
2023-03-18T08:57:35.912Z,10.13
2023-03-18T09:00:05.345Z,7.72
2023-03-18T09:02:33.999Z,8.50
2023-03-18T09:05:02.322Z,6.97
2023-03-18T09:07:31.989Z,7.63
2023-03-18T09:10:00.261Z,6.78
2023-03-18T09:12:28.615Z,5.78
2023-03-18T09:14:57.453Z,7.20
2023-03-18T09:17:40.315Z,9.32
2023-03-18T09:20:16.393Z,6.32
2023-03-18T09:22:49.240Z,8.02
2023-03-18T09:25:19.903Z,9.32
2023-03-18T09:27:48.748Z,6.25
2023-03-18T09:30:17.192Z,7.80
2023-03-18T09:32:45.718Z,9.18
2023-03-18T09:35:14.631Z,5.72
2023-03-18T09:37:43.830Z,8.20
2023-03-18T09:40:19.064Z,6.72
2023-03-18T09:42:52.429Z,5.72
2023-03-18T09:45:22.833Z,7.00
2023-03-18T09:48:03.267Z,6.03
2023-03-18T09:50:39.008Z,6.80
2023-03-18T09:53:12.833Z,10.55
2023-03-18T09:55:46.904Z,6.22
2023-03-18T09:58:23.402Z,5.30
2023-03-18T10:00:53.499Z,7.30
2023-03-18T10:03:27.929Z,6.60
2023-03-18T10:05:58.773Z,5.82
2023-03-18T10:08:34.552Z,7.35
2023-03-18T10:11:06.934Z,5.30
2023-03-18T10:13:37.387Z,4.75
2023-03-18T10:16:07.154Z,5.63
2023-03-18T10:18:37.299Z,5.97
2023-03-18T10:21:09.104Z,5.93
2023-03-18T10:23:41.728Z,5.40
2023-03-18T10:26:15.653Z,4.60
2023-03-18T10:28:58.309Z,6.60
2023-03-18T10:31:34.067Z,5.75
2023-03-18T10:34:03.717Z,5.13
2023-03-18T10:36:36.630Z,8.38
2023-03-18T10:39:05.320Z,6.97
2023-03-18T10:41:37.516Z,4.75
2023-03-18T10:44:08.321Z,4.70
2023-03-18T10:46:38.569Z,5.30
2023-03-18T10:49:08.895Z,4.90
2023-03-18T10:51:42.042Z,7.25
2023-03-18T10:54:12.586Z,7.10
2023-03-18T10:56:42.821Z,5.43
2023-03-18T10:59:16.239Z,5.53
2023-03-18T11:01:45.606Z,5.18
2023-03-18T11:04:15.203Z,5.53
2023-03-18T11:06:46.759Z,3.97
2023-03-18T11:09:17.967Z,8.85
2023-03-18T11:11:48.568Z,5.60
2023-03-18T11:14:18.047Z,4.32
2023-03-18T11:16:49.437Z,4.13
2023-03-18T11:19:27.847Z,4.85
2023-03-18T11:22:04.638Z,5.57
2023-03-18T11:24:39.149Z,6.70
2023-03-18T11:27:24.153Z,3.92
2023-03-18T11:29:56.058Z,6.22
2023-03-18T11:32:25.939Z,3.75
2023-03-18T11:34:57.273Z,4.57
2023-03-18T11:37:29.107Z,3.25
2023-03-18T11:40:09.040Z,5.32
2023-03-18T11:42:40.403Z,5.07
2023-03-18T11:45:20.156Z,6.32
2023-03-18T11:47:48.992Z,4.38
2023-03-18T11:50:20.295Z,4.38
2023-03-18T11:52:53.201Z,5.55
2023-03-18T11:55:27.130Z,3.30
2023-03-18T11:58:13.486Z,3.97
2023-03-18T12:00:46.633Z,5.88
2023-03-18T18:03:50.886Z,19.25
2023-03-18T18:06:20.872Z,46.53
2023-03-18T18:08:50.668Z,34.97
2023-03-18T18:11:20.956Z,22.15
2023-03-18T18:13:49.386Z,21.38
2023-03-18T18:16:18.746Z,19.98
2023-03-18T18:18:49.605Z,22.27
2023-03-18T18:21:21.361Z,22.00
2023-03-18T18:23:49.774Z,23.55
2023-03-18T18:26:19.488Z,22.27
2023-03-18T18:28:48.623Z,18.15
2023-03-18T18:31:19.128Z,16.65
2023-03-18T18:33:49.620Z,22.10
2023-03-18T18:36:18.300Z,24.42
2023-03-18T18:38:48.062Z,20.95
2023-03-18T18:41:16.355Z,18.58
2023-03-18T18:43:44.604Z,20.83
2023-03-18T18:46:14.864Z,21.55
2023-03-18T18:48:45.388Z,21.70
2023-03-18T18:51:16.693Z,18.40
2023-03-18T18:53:45.354Z,22.77
2023-03-18T18:56:18.777Z,15.57
2023-03-18T18:58:47.656Z,14.95
2023-03-18T19:01:16.292Z,13.50
2023-03-18T19:03:44.673Z,15.07
2023-03-18T19:06:20.707Z,16.48
2023-03-18T19:08:49.159Z,14.68
2023-03-18T19:11:18.900Z,18.70
2023-03-18T19:13:47.566Z,19.85
2023-03-18T19:16:20.764Z,16.73
2023-03-18T19:18:49.684Z,15.85
2023-03-18T19:21:18.007Z,14.20
2023-03-18T19:23:46.760Z,14.63
2023-03-18T19:26:15.904Z,12.07
2023-03-18T19:28:59.038Z,13.77
2023-03-18T19:31:30.331Z,13.68
2023-03-18T19:34:00.192Z,13.82
2023-03-18T19:36:29.715Z,10.88
2023-03-18T19:38:59.070Z,11.32
2023-03-18T19:41:27.596Z,11.73
2023-03-18T19:44:00.383Z,11.65
2023-03-18T19:46:32.059Z,13.80
2023-03-18T19:49:00.896Z,13.35
2023-03-18T19:51:29.166Z,12.68
2023-03-18T19:53:57.628Z,12.90
2023-03-18T19:56:26.343Z,11.82
2023-03-18T19:58:55.599Z,10.23
2023-03-18T20:01:25.320Z,8.98
2023-03-18T20:03:55.585Z,9.75
2023-03-18T20:06:23.911Z,9.35
2023-03-18T20:08:52.243Z,11.05
2023-03-18T20:11:21.727Z,9.73
2023-03-18T20:13:50.738Z,10.35
2023-03-18T20:16:21.552Z,10.10
2023-03-18T20:18:51.540Z,9.98
2023-03-18T20:21:23.873Z,9.77
2023-03-18T20:23:53.760Z,11.18
2023-03-18T20:26:22.703Z,12.48
2023-03-18T20:28:55.418Z,16.90
2023-03-18T20:31:23.918Z,12.88
2023-03-18T20:33:53.571Z,14.63
2023-03-18T20:36:21.892Z,13.48
2023-03-18T20:38:51.342Z,13.75
2023-03-18T20:41:20.900Z,17.50
2023-03-18T20:43:50.117Z,14.93
2023-03-18T20:46:18.702Z,13.88
2023-03-18T20:48:49.257Z,16.77
2023-03-18T20:51:24.108Z,13.63
2023-03-18T20:53:52.458Z,12.27
2023-03-18T20:56:22.757Z,16.35
2023-03-18T20:58:51.106Z,19.45
2023-03-18T21:01:19.894Z,20.00
2023-03-18T21:03:48.795Z,18.33
2023-03-18T21:06:19.160Z,16.42
2023-03-18T21:08:48.868Z,15.35
2023-03-18T21:11:22.509Z,12.02
2023-03-18T21:13:51.179Z,16.60
2023-03-18T21:16:20.975Z,11.18
2023-03-18T21:18:49.822Z,10.73
2023-03-18T21:21:23.958Z,11.15
2023-03-18T21:23:54.037Z,10.20
2023-03-18T21:26:22.613Z,10.38
2023-03-18T21:28:50.909Z,9.82
2023-03-18T21:31:24.314Z,9.88
2023-03-18T21:33:53.396Z,9.15
2023-03-18T21:36:21.690Z,11.10
2023-03-18T21:38:50.072Z,15.73
2023-03-18T21:41:23.625Z,9.25
2023-03-18T21:43:52.254Z,10.80
2023-03-18T21:46:22.403Z,18.50
2023-03-18T21:48:50.812Z,13.65
2023-03-18T21:51:37.957Z,18.55
2023-03-18T21:54:07.536Z,15.55
2023-03-18T21:56:37.176Z,13.52
2023-03-18T21:59:05.508Z,12.55
2023-03-18T22:01:34.151Z,12.43
2023-03-18T22:04:02.715Z,15.07
2023-03-18T22:06:31.171Z,12.90
2023-03-18T22:08:59.569Z,12.02
2023-03-18T22:11:29.190Z,11.13
2023-03-18T22:13:58.957Z,10.68
2023-03-18T22:16:27.273Z,12.82
2023-03-18T22:18:55.654Z,11.68
2023-03-18T22:21:25.184Z,12.93
2023-03-18T22:23:55.536Z,15.57
2023-03-18T22:26:24.061Z,14.75
2023-03-18T22:28:52.323Z,15.38
2023-03-18T22:31:23.261Z,12.27
2023-03-18T22:33:51.993Z,13.02
2023-03-18T22:36:21.550Z,11.88
2023-03-18T22:38:53.089Z,14.30
2023-03-18T22:41:22.901Z,13.98
2023-03-18T22:43:51.668Z,12.80
2023-03-18T22:46:21.396Z,15.27
2023-03-18T22:48:49.707Z,20.60
2023-03-18T22:51:21.770Z,19.67
2023-03-18T22:53:51.294Z,15.63
2023-03-18T22:56:20.180Z,15.32
2023-03-18T22:58:48.512Z,17.33
2023-03-18T23:01:18.609Z,19.08
2023-03-18T23:03:48.891Z,17.33
2023-03-18T23:06:18.483Z,14.75
2023-03-18T23:08:46.926Z,17.23
2023-03-18T23:11:15.596Z,15.32
2023-03-18T23:13:44.942Z,17.02
2023-03-18T23:16:15.485Z,19.85
2023-03-18T23:18:43.826Z,16.02
2023-03-18T23:21:16.288Z,16.20
2023-03-18T23:23:44.578Z,19.98
2023-03-18T23:26:12.918Z,17.50
2023-03-18T23:28:44.962Z,13.02
2023-03-18T23:31:13.613Z,11.52
2023-03-18T23:33:41.952Z,14.50
2023-03-18T23:36:10.563Z,11.70
2023-03-18T23:38:40.440Z,12.60
2023-03-18T23:41:09.107Z,15.00
2023-03-18T23:43:37.593Z,14.07
2023-03-18T23:46:06.172Z,12.32
2023-03-18T23:48:34.589Z,13.77
2023-03-18T23:51:02.990Z,14.90
2023-03-18T23:53:31.316Z,12.38
2023-03-18T23:56:00.947Z,10.50
2023-03-18T23:58:29.207Z,16.50
